Terminal Aerodrome Forecast
Issued by NWS Sterling, VA

Current Version | Previous Version | Text Only | Print | Product List | Glossary Off
Versions: 1 2 3 4 5 6 7 8 9 10 11 12 13 14 15 16 17 18 19 20 21 22 23 24 25 26 27

000
FTUS41 KLWX 050540
TAFDCA
TAF
KDCA 050540Z 0506/0606 VRB03KT 3SM BR BKN015
     FM050700 VRB03KT 2SM BR BKN015
     FM051200 01004KT P6SM SCT015
     FM051300 VRB03KT P6SM SCT200
     FM052100 13005KT P6SM BKN050=

USA.gov is the U.S. government's official web portal to all federal, state and local government web resources and services.